Time;durP1;ratioP1;P1;durP2;ratioP2;P2;SDS_P1;SDS_P2;PMS_P1;PMS_P2;Temp;Humidity;BMP_temperature;BMP_pressure;BME280_temperature;BME280_humidity;BME280_pressure;Samples;Min_cycle;Max_cycle;Signal;HPM_P1;HPM_P2
2023/02/27 00:00:30;;;;;;;1.40;1.03;;;;;;;;;;5037741;28;20355;-69
2023/02/27 00:02:57;;;;;;;1.90;1.27;;;;;;;;;;5046719;28;20812;-69
2023/02/27 00:05:22;;;;;;;3.75;1.83;;;;;;;;;;5042004;28;20024;-69
2023/02/27 00:07:47;;;;;;;3.85;1.90;;;;;;;;;;5030587;28;20029;-68
2023/02/27 00:10:13;;;;;;;2.40;1.30;;;;;;;;;;5048194;28;20464;-68
2023/02/27 00:12:38;;;;;;;2.90;1.40;;;;;;;;;;5048097;28;20279;-67
2023/02/27 00:15:05;;;;;;;3.42;1.33;;;;;;;;;;5051328;28;20017;-71
2023/02/27 00:17:30;;;;;;;3.38;1.55;;;;;;;;;;5044276;28;20036;-75
2023/02/27 00:19:55;;;;;;;2.05;1.20;;;;;;;;;;5040511;28;20025;-83
2023/02/27 00:22:21;;;;;;;1.80;1.17;;;;;;;;;;5044124;28;20040;-86
2023/02/27 00:24:46;;;;;;;7.70;2.20;;;;;;;;;;5040694;28;20292;-84
2023/02/27 00:27:11;;;;;;;3.67;1.40;;;;;;;;;;5041394;28;20332;-86
2023/02/27 00:29:36;;;;;;;3.43;1.50;;;;;;;;;;5047636;28;20287;-84
2023/02/27 00:32:02;;;;;;;2.20;1.30;;;;;;;;;;5046565;28;20363;-86
2023/02/27 00:34:27;;;;;;;3.22;1.40;;;;;;;;;;5041865;28;20351;-83
2023/02/27 00:36:52;;;;;;;1.67;1.25;;;;;;;;;;5043121;28;20025;-84
2023/02/27 00:39:18;;;;;;;3.83;1.65;;;;;;;;;;5044748;28;20025;-84
2023/02/27 00:41:43;;;;;;;3.30;1.40;;;;;;;;;;5047406;28;20054;-85
2023/02/27 00:44:08;;;;;;;2.83;1.77;;;;;;;;;;5046643;28;20149;-84
2023/02/27 00:46:33;;;;;;;4.57;1.93;;;;;;;;;;5053685;28;20021;-85
2023/02/27 00:48:58;;;;;;;4.25;1.60;;;;;;;;;;5047572;28;20366;-86
2023/02/27 00:51:24;;;;;;;2.80;1.30;;;;;;;;;;5046666;28;20083;-87
2023/02/27 00:53:49;;;;;;;4.63;1.30;;;;;;;;;;5041374;28;20356;-68
2023/02/27 00:56:14;;;;;;;4.37;1.50;;;;;;;;;;5043104;28;20047;-70
2023/02/27 00:58:39;;;;;;;4.67;1.77;;;;;;;;;;5041904;28;20713;-76
2023/02/27 01:01:05;;;;;;;3.90;1.77;;;;;;;;;;5039147;28;20720;-75
2023/02/27 01:03:30;;;;;;;4.25;1.92;;;;;;;;;;5028707;28;20836;-77
2023/02/27 01:05:56;;;;;;;4.20;1.40;;;;;;;;;;5044418;28;20579;-76
2023/02/27 01:08:21;;;;;;;3.17;1.40;;;;;;;;;;5037696;28;20897;-76
2023/02/27 01:10:46;;;;;;;2.17;1.17;;;;;;;;;;5039660;28;20128;-75
2023/02/27 01:13:11;;;;;;;1.87;1.10;;;;;;;;;;5047170;28;20291;-74
2023/02/27 01:15:37;;;;;;;3.03;1.73;;;;;;;;;;5042876;28;20105;-71
2023/02/27 01:18:02;;;;;;;3.05;1.48;;;;;;;;;;5046116;28;20820;-71
2023/02/27 01:20:27;;;;;;;3.00;1.50;;;;;;;;;;5039517;28;20044;-71
2023/02/27 01:22:52;;;;;;;2.80;1.50;;;;;;;;;;5043530;28;20032;-70
2023/02/27 01:25:18;;;;;;;4.70;1.50;;;;;;;;;;5044823;28;20413;-70
2023/02/27 01:27:43;;;;;;;2.60;1.58;;;;;;;;;;5045324;28;20321;-70
2023/02/27 01:30:10;;;;;;;2.70;1.40;;;;;;;;;;5042670;28;20044;-74
2023/02/27 01:32:35;;;;;;;2.17;1.20;;;;;;;;;;5043771;28;20348;-77
2023/02/27 01:35:00;;;;;;;4.03;1.60;;;;;;;;;;5042497;28;20024;-72
2023/02/27 01:37:26;;;;;;;2.07;1.27;;;;;;;;;;5042221;28;20113;-72
2023/02/27 01:39:51;;;;;;;4.22;1.75;;;;;;;;;;5046684;28;20283;-69
2023/02/27 01:42:21;;;;;;;2.60;1.30;;;;;;;;;;5041233;28;20476;-70
2023/02/27 01:45:01;;;;;;;3.85;1.77;;;;;;;;;;5047273;28;20353;-70
2023/02/27 01:47:26;;;;;;;3.58;1.70;;;;;;;;;;5043571;28;20032;-70
2023/02/27 01:49:52;;;;;;;3.25;1.50;;;;;;;;;;5047965;28;20231;-68
2023/02/27 01:52:17;;;;;;;2.25;1.35;;;;;;;;;;5047129;28;20033;-76
2023/02/27 01:54:42;;;;;;;3.93;1.67;;;;;;;;;;5034046;28;20032;-75
2023/02/27 01:57:08;;;;;;;2.60;0.90;;;;;;;;;;5026379;28;20278;-76
2023/02/27 01:59:34;;;;;;;3.00;1.50;;;;;;;;;;5039349;28;20035;-76
2023/02/27 02:02:01;;;;;;;2.72;1.48;;;;;;;;;;5039376;28;20029;-76
2023/02/27 02:04:28;;;;;;;4.43;2.55;;;;;;;;;;5043116;28;20036;-79
2023/02/27 02:07:00;;;;;;;4.70;1.60;;;;;;;;;;5044686;28;20033;-69
2023/02/27 02:09:27;;;;;;;2.17;1.27;;;;;;;;;;5044008;28;20119;-73
2023/02/27 02:11:53;;;;;;;2.97;1.65;;;;;;;;;;5045975;28;20120;-74
2023/02/27 02:14:18;;;;;;;1.95;1.40;;;;;;;;;;5028466;28;20029;-75
2023/02/27 02:17:02;;;;;;;2.28;1.40;;;;;;;;;;5039288;28;20032;-75
2023/02/27 02:19:36;;;;;;;3.38;1.50;;;;;;;;;;5040780;28;20031;-73
2023/02/27 02:22:19;;;;;;;5.85;1.75;;;;;;;;;;5047146;28;20037;-74
2023/02/27 02:25:03;;;;;;;2.88;1.55;;;;;;;;;;5039129;28;20033;-74
2023/02/27 02:27:36;;;;;;;4.55;1.40;;;;;;;;;;5048691;28;20021;-70
2023/02/27 02:30:02;;;;;;;4.38;1.40;;;;;;;;;;5043175;28;20039;-67
2023/02/27 02:32:45;;;;;;;5.20;1.70;;;;;;;;;;5041758;28;20029;-69
2023/02/27 02:35:29;;;;;;;3.60;1.63;;;;;;;;;;5046805;28;20029;-68
2023/02/27 02:38:03;;;;;;;2.80;1.38;;;;;;;;;;5040898;28;20033;-68
2023/02/27 02:41:00;;;;;;;6.60;1.70;;;;;;;;;;5049100;28;20475;-69
2023/02/27 02:43:32;;;;;;;4.97;1.83;;;;;;;;;;4997336;28;20040;-68
2023/02/27 02:45:57;;;;;;;5.82;1.83;;;;;;;;;;5048454;28;20024;-71
2023/02/27 02:48:29;;;;;;;2.83;1.60;;;;;;;;;;5048076;28;20515;-75
2023/02/27 02:50:57;;;;;;;2.47;1.60;;;;;;;;;;5045965;28;20061;-72
2023/02/27 02:53:38;;;;;;;2.10;1.45;;;;;;;;;;5052696;28;20291;-76
2023/02/27 02:56:24;;;;;;;5.43;2.00;;;;;;;;;;5049749;28;20094;-74
2023/02/27 02:59:03;;;;;;;3.17;1.70;;;;;;;;;;5043468;28;20037;-74
2023/02/27 03:01:37;;;;;;;3.97;1.70;;;;;;;;;;5047785;28;20114;-72
2023/02/27 03:04:07;;;;;;;4.45;1.85;;;;;;;;;;5049075;28;20518;-85
2023/02/27 03:06:34;;;;;;;4.40;1.92;;;;;;;;;;5045289;28;20021;-74
2023/02/27 03:09:10;;;;;;;7.70;2.20;;;;;;;;;;5042659;28;20028;-74
2023/02/27 03:11:38;;;;;;;4.10;1.92;;;;;;;;;;5048389;28;20025;-72
2023/02/27 03:14:19;;;;;;;3.53;1.80;;;;;;;;;;5047964;28;20121;-74
2023/02/27 03:16:50;;;;;;;5.45;2.25;;;;;;;;;;5045588;28;20530;-74
2023/02/27 03:19:18;;;;;;;5.05;1.90;;;;;;;;;;5044618;28;20079;-74
2023/02/27 03:21:52;;;;;;;6.22;2.20;;;;;;;;;;5048873;28;20025;-73
2023/02/27 03:24:32;;;;;;;3.35;1.50;;;;;;;;;;5032248;28;20029;-73
2023/02/27 03:27:01;;;;;;;4.20;1.50;;;;;;;;;;5053077;28;20036;-74
2023/02/27 03:29:26;;;;;;;;;;;;;;;;;;5042960;28;20037;-74
2023/02/27 03:31:55;;;;;;;2.67;1.50;;;;;;;;;;5047746;28;19912;-73
2023/02/27 03:34:20;;;;;;;5.05;1.58;;;;;;;;;;5043137;28;20113;-74
2023/02/27 03:37:01;;;;;;;2.47;1.33;;;;;;;;;;5041216;28;20112;-73
2023/02/27 03:39:35;;;;;;;5.50;1.85;;;;;;;;;;5040284;28;20033;-67
2023/02/27 03:42:00;;;;;;;6.63;1.80;;;;;;;;;;5037188;28;20460;-73
2023/02/27 03:44:30;;;;;;;5.93;2.10;;;;;;;;;;5047857;28;20031;-76
2023/02/27 03:46:55;;;;;;;2.80;1.65;;;;;;;;;;5045564;28;20100;-77
2023/02/27 03:49:21;;;;;;;3.55;1.67;;;;;;;;;;5043946;28;20067;-76
2023/02/27 03:51:46;;;;;;;4.65;2.15;;;;;;;;;;5035152;28;20036;-77
2023/02/27 03:54:20;;;;;;;4.30;1.90;;;;;;;;;;5046854;28;20052;-76
2023/02/27 03:57:05;;;;;;;7.32;2.13;;;;;;;;;;5045681;28;20385;-74
2023/02/27 03:59:30;;;;;;;3.85;1.98;;;;;;;;;;5051533;28;20039;-72
2023/02/27 04:01:56;;;;;;;3.30;1.77;;;;;;;;;;5049606;28;20021;-86
2023/02/27 04:04:22;;;;;;;3.72;1.92;;;;;;;;;;5050421;28;20075;-85
2023/02/27 04:09:52;;;;;;;3.05;1.77;;;;;;;;;;5049151;28;20029;-86
2023/02/27 04:12:32;;;;;;;4.68;1.92;;;;;;;;;;5046245;28;20103;-86
2023/02/27 04:15:07;;;;;;;6.65;2.40;;;;;;;;;;5029073;28;20079;-84
2023/02/27 04:17:35;;;;;;;3.22;1.73;;;;;;;;;;5038396;28;20044;-73
2023/02/27 04:20:07;;;;;;;3.95;1.70;;;;;;;;;;5048074;28;20513;-67
2023/02/27 04:22:43;;;;;;;5.22;1.67;;;;;;;;;;5044366;28;20131;-67
2023/02/27 04:25:27;;;;;;;6.13;1.90;;;;;;;;;;5043922;28;20029;-68
2023/02/27 04:28:01;;;;;;;5.20;2.97;;;;;;;;;;5043967;28;20127;-67
2023/02/27 04:30:44;;;;;;;4.07;2.00;;;;;;;;;;5051733;28;20052;-66
2023/02/27 04:33:12;;;;;;;3.45;1.50;;;;;;;;;;5047303;28;20021;-67
2023/02/27 04:35:42;;;;;;;3.40;1.90;;;;;;;;;;5047427;28;20029;-72
2023/02/27 04:38:17;;;;;;;3.97;1.90;;;;;;;;;;5045584;28;20040;-67
2023/02/27 04:40:46;;;;;;;5.18;2.17;;;;;;;;;;5045081;28;20033;-69
2023/02/27 04:43:12;;;;;;;3.83;2.25;;;;;;;;;;5045559;28;20063;-69
2023/02/27 04:45:40;;;;;;;4.68;2.70;;;;;;;;;;5042403;28;20506;-67
2023/02/27 04:48:09;;;;;;;4.57;1.98;;;;;;;;;;5047443;28;20484;-67
2023/02/27 04:50:40;;;;;;;4.70;1.85;;;;;;;;;;5045891;28;20040;-68
2023/02/27 04:53:21;;;;;;;3.47;1.95;;;;;;;;;;5047797;28;20132;-70
2023/02/27 04:55:49;;;;;;;3.83;1.70;;;;;;;;;;5041517;28;20040;-67
2023/02/27 04:58:17;;;;;;;3.83;2.22;;;;;;;;;;5034688;28;20150;-68
2023/02/27 05:00:46;;;;;;;3.50;1.92;;;;;;;;;;5041795;28;20346;-68
2023/02/27 05:03:15;;;;;;;5.87;3.23;;;;;;;;;;5042153;28;20076;-68
2023/02/27 05:05:41;;;;;;;2.87;1.97;;;;;;;;;;5043307;28;20056;-68
2023/02/27 05:08:15;;;;;;;3.17;2.22;;;;;;;;;;5047091;28;20362;-70
2023/02/27 05:11:03;;;;;;;5.43;1.80;;;;;;;;;;5045173;28;20043;-68
2023/02/27 05:13:31;;;;;;;4.22;1.85;;;;;;;;;;5027289;28;20033;-84
2023/02/27 05:16:08;;;;;;;4.38;2.22;;;;;;;;;;5040996;28;20032;-78
2023/02/27 05:18:33;;;;;;;4.45;1.95;;;;;;;;;;5040550;28;20033;-75
2023/02/27 05:21:13;;;;;;;3.83;1.77;;;;;;;;;;5040981;28;20152;-77
2023/02/27 05:23:43;;;;;;;6.35;2.45;;;;;;;;;;5043061;28;20376;-77
2023/02/27 05:26:11;;;;;;;4.63;2.15;;;;;;;;;;5041832;28;20076;-77
2023/02/27 05:28:40;;;;;;;4.93;2.78;;;;;;;;;;5047805;28;20025;-77
2023/02/27 05:31:17;;;;;;;4.40;2.38;;;;;;;;;;5043780;28;20102;-73
2023/02/27 05:33:58;;;;;;;3.95;2.20;;;;;;;;;;5047269;28;20033;-77
2023/02/27 05:36:23;;;;;;;5.43;2.85;;;;;;;;;;5035828;28;20033;-75
2023/02/27 05:38:50;;;;;;;5.83;1.70;;;;;;;;;;5040652;28;20037;-76
2023/02/27 05:41:18;;;;;;;3.90;1.92;;;;;;;;;;5048263;28;20777;-77
2023/02/27 05:43:46;;;;;;;6.82;2.42;;;;;;;;;;5043993;28;20032;-75
2023/02/27 05:46:18;;;;;;;6.88;2.35;;;;;;;;;;5041780;28;20035;-76
2023/02/27 05:49:03;;;;;;;3.83;2.30;;;;;;;;;;5044284;28;20029;-71
2023/02/27 05:51:31;;;;;;;6.68;2.70;;;;;;;;;;5014116;28;20123;-67
2023/02/27 05:54:00;;;;;;;4.25;2.30;;;;;;;;;;5038517;28;20033;-68
2023/02/27 05:56:27;;;;;;;5.50;2.40;;;;;;;;;;5045724;28;20025;-68
2023/02/27 05:58:59;;;;;;;6.90;2.42;;;;;;;;;;5045311;28;20024;-69
2023/02/27 06:01:24;;;;;;;5.95;2.60;;;;;;;;;;5042797;28;20131;-68
2023/02/27 06:03:50;;;;;;;5.13;2.20;;;;;;;;;;5045041;28;20824;-68
2023/02/27 06:06:17;;;;;;;4.38;1.77;;;;;;;;;;5047329;28;20120;-72
2023/02/27 06:08:43;;;;;;;5.80;2.53;;;;;;;;;;5026600;28;20033;-70
2023/02/27 06:11:08;;;;;;;4.00;1.98;;;;;;;;;;5041270;28;20044;-68
2023/02/27 06:13:33;;;;;;;4.85;2.10;;;;;;;;;;5039378;28;20026;-66
2023/02/27 06:15:58;;;;;;;3.75;2.42;;;;;;;;;;5045479;28;20021;-66
2023/02/27 06:18:23;;;;;;;4.73;2.33;;;;;;;;;;5040102;28;20060;-68
2023/02/27 06:20:49;;;;;;;6.32;2.55;;;;;;;;;;5045641;28;20750;-67
2023/02/27 06:23:14;;;;;;;5.90;3.03;;;;;;;;;;5046202;28;20037;-69
2023/02/27 06:25:41;;;;;;;4.93;2.17;;;;;;;;;;5029137;28;20029;-68
2023/02/27 06:28:06;;;;;;;4.00;2.25;;;;;;;;;;5043303;28;20021;-72
2023/02/27 06:30:31;;;;;;;5.65;2.60;;;;;;;;;;5038029;28;20094;-72
2023/02/27 06:32:57;;;;;;;6.35;3.25;;;;;;;;;;5040287;28;20033;-73
2023/02/27 06:35:22;;;;;;;5.50;2.88;;;;;;;;;;5039864;28;20465;-70
2023/02/27 06:37:47;;;;;;;5.20;2.60;;;;;;;;;;5045440;28;20035;-72
2023/02/27 06:40:13;;;;;;;4.88;2.60;;;;;;;;;;5033320;28;20419;-76
2023/02/27 06:42:39;;;;;;;8.50;2.90;;;;;;;;;;5037990;28;20041;-75
2023/02/27 06:45:05;;;;;;;5.03;2.88;;;;;;;;;;5042488;28;20160;-72
2023/02/27 06:47:30;;;;;;;6.85;3.05;;;;;;;;;;5040374;28;20119;-67
2023/02/27 06:49:55;;;;;;;5.47;2.38;;;;;;;;;;5045236;28;20490;-71
2023/02/27 06:52:20;;;;;;;5.60;3.20;;;;;;;;;;5038033;28;20352;-69
2023/02/27 06:54:46;;;;;;;5.00;2.73;;;;;;;;;;5051237;28;20025;-69
2023/02/27 06:57:11;;;;;;;5.80;2.93;;;;;;;;;;5046922;28;20290;-69
2023/02/27 06:59:36;;;;;;;4.65;2.58;;;;;;;;;;5043086;28;20280;-68
2023/02/27 07:02:01;;;;;;;5.47;2.83;;;;;;;;;;5042974;28;20195;-68
2023/02/27 07:04:26;;;;;;;4.88;2.55;;;;;;;;;;5045535;28;20641;-70
2023/02/27 07:06:52;;;;;;;5.97;3.50;;;;;;;;;;5046706;28;20032;-71
2023/02/27 07:09:17;;;;;;;5.75;3.00;;;;;;;;;;5053137;28;20099;-68
2023/02/27 07:11:43;;;;;;;8.88;3.22;;;;;;;;;;5051798;28;20396;-72
2023/02/27 07:14:08;;;;;;;5.55;2.80;;;;;;;;;;5051203;28;20420;-70
2023/02/27 07:16:33;;;;;;;4.80;2.58;;;;;;;;;;5050398;28;20016;-72
2023/02/27 07:18:58;;;;;;;4.88;2.70;;;;;;;;;;5049463;28;20037;-71
2023/02/27 07:21:23;;;;;;;5.57;2.78;;;;;;;;;;5051275;28;20513;-76
2023/02/27 07:23:49;;;;;;;6.60;2.45;;;;;;;;;;5050189;28;20439;-70
2023/02/27 07:26:14;;;;;;;6.83;2.67;;;;;;;;;;5050664;28;20032;-70
2023/02/27 07:28:39;;;;;;;4.25;2.30;;;;;;;;;;5044490;28;20279;-68
2023/02/27 07:31:04;;;;;;;6.35;2.60;;;;;;;;;;5047467;28;20073;-68
2023/02/27 07:33:31;;;;;;;10.93;3.37;;;;;;;;;;5048952;28;20029;-68
2023/02/27 07:35:56;;;;;;;7.03;3.00;;;;;;;;;;5050759;28;20750;-67
2023/02/27 07:38:22;;;;;;;9.77;2.85;;;;;;;;;;5050483;28;20035;-72
2023/02/27 07:40:48;;;;;;;6.68;3.05;;;;;;;;;;5055937;28;20029;-73
2023/02/27 07:43:13;;;;;;;13.27;2.95;;;;;;;;;;5036929;28;20533;-75
2023/02/27 07:45:39;;;;;;;5.83;2.93;;;;;;;;;;5051158;28;20102;-78
2023/02/27 07:48:04;;;;;;;6.65;2.90;;;;;;;;;;5050480;28;20284;-75
2023/02/27 07:50:29;;;;;;;5.43;2.80;;;;;;;;;;5032640;28;20033;-76
2023/02/27 07:52:54;;;;;;;4.87;2.37;;;;;;;;;;5049872;28;20074;-73
2023/02/27 07:55:19;;;;;;;7.77;2.90;;;;;;;;;;5050749;28;20268;-74
2023/02/27 07:57:45;;;;;;;5.90;2.80;;;;;;;;;;5050322;28;20354;-69
2023/02/27 08:00:10;;;;;;;5.70;2.70;;;;;;;;;;5047208;28;20344;-74
2023/02/27 08:02:35;;;;;;;7.22;3.45;;;;;;;;;;5044765;28;20044;-75
2023/02/27 08:05:01;;;;;;;6.82;2.75;;;;;;;;;;5049802;28;20486;-77
2023/02/27 08:07:26;;;;;;;8.75;3.78;;;;;;;;;;5049528;28;20033;-75
2023/02/27 08:09:51;;;;;;;4.60;2.72;;;;;;;;;;5049890;28;20063;-75
2023/02/27 08:12:16;;;;;;;4.40;2.83;;;;;;;;;;5051492;28;20094;-76
2023/02/27 08:14:42;;;;;;;4.95;2.85;;;;;;;;;;5053716;28;20074;-71
2023/02/27 08:17:07;;;;;;;3.73;1.97;;;;;;;;;;5049568;28;20706;-69
2023/02/27 08:19:32;;;;;;;6.73;2.77;;;;;;;;;;5026354;28;20858;-77
2023/02/27 08:21:57;;;;;;;5.05;3.13;;;;;;;;;;5049304;28;20757;-75
2023/02/27 08:24:23;;;;;;;7.38;2.95;;;;;;;;;;5046293;28;20085;-77
2023/02/27 08:26:48;;;;;;;3.83;2.63;;;;;;;;;;5050015;28;20093;-75
2023/02/27 08:29:14;;;;;;;4.75;2.30;;;;;;;;;;5050359;28;20468;-79
2023/02/27 08:31:39;;;;;;;6.30;2.90;;;;;;;;;;5051055;28;20120;-80
2023/02/27 08:34:05;;;;;;;5.88;2.63;;;;;;;;;;5050896;28;20127;-66
2023/02/27 08:36:30;;;;;;;4.28;2.50;;;;;;;;;;5049830;28;20028;-70
2023/02/27 08:38:55;;;;;;;5.57;2.50;;;;;;;;;;5045907;28;20025;-70
2023/02/27 08:41:21;;;;;;;3.67;2.27;;;;;;;;;;5049320;28;20121;-70
2023/02/27 08:43:46;;;;;;;5.68;2.20;;;;;;;;;;5048877;28;20820;-71
2023/02/27 08:46:12;;;;;;;4.55;2.20;;;;;;;;;;5052682;28;20495;-70
2023/02/27 08:48:37;;;;;;;3.25;1.85;;;;;;;;;;5047886;28;20086;-68
2023/02/27 08:51:02;;;;;;;3.65;2.33;;;;;;;;;;5046621;28;20071;-71
2023/02/27 08:53:28;;;;;;;4.00;2.45;;;;;;;;;;5048437;28;20028;-69
2023/02/27 08:55:54;;;;;;;5.50;2.22;;;;;;;;;;5048808;28;20048;-70
2023/02/27 08:58:19;;;;;;;3.88;2.00;;;;;;;;;;5048884;28;20104;-69
2023/02/27 09:00:44;;;;;;;9.15;2.58;;;;;;;;;;5046044;28;20124;-69
2023/02/27 09:03:10;;;;;;;3.65;2.28;;;;;;;;;;5043997;28;20487;-67
2023/02/27 09:05:36;;;;;;;4.88;2.70;;;;;;;;;;5048723;28;20063;-66
2023/02/27 09:08:02;;;;;;;5.78;2.25;;;;;;;;;;5042850;28;20036;-67
2023/02/27 09:10:27;;;;;;;4.22;2.00;;;;;;;;;;5048266;28;20028;-74
2023/02/27 09:12:52;;;;;;;6.27;2.80;;;;;;;;;;5048216;28;20123;-71
2023/02/27 09:15:18;;;;;;;5.03;2.30;;;;;;;;;;5048593;28;20364;-67
2023/02/27 09:17:43;;;;;;;8.10;2.58;;;;;;;;;;5037308;28;20508;-70
2023/02/27 09:20:09;;;;;;;5.25;1.90;;;;;;;;;;5032077;28;20435;-68
2023/02/27 09:22:34;;;;;;;5.30;2.60;;;;;;;;;;5053221;28;20029;-68
2023/02/27 09:25:00;;;;;;;4.38;2.38;;;;;;;;;;5028435;28;20021;-68
2023/02/27 09:27:25;;;;;;;6.33;2.20;;;;;;;;;;5047414;28;20029;-70
2023/02/27 09:29:54;;;;;;;6.97;2.55;;;;;;;;;;5046961;28;20319;-68
2023/02/27 09:32:20;;;;;;;4.55;2.40;;;;;;;;;;5042966;28;20037;-82
2023/02/27 09:34:45;;;;;;;4.38;2.30;;;;;;;;;;5046643;28;20057;-79
2023/02/27 09:37:10;;;;;;;3.43;2.00;;;;;;;;;;5047642;28;20456;-76
2023/02/27 09:39:35;;;;;;;6.87;2.47;;;;;;;;;;5047049;28;20634;-74
2023/02/27 09:42:05;;;;;;;6.43;2.40;;;;;;;;;;5043449;28;20264;-78
2023/02/27 09:44:34;;;;;;;6.05;2.50;;;;;;;;;;5048399;28;20043;-76
2023/02/27 09:46:59;;;;;;;4.93;2.10;;;;;;;;;;5045328;28;20115;-70
2023/02/27 09:49:26;;;;;;;4.97;2.30;;;;;;;;;;5050271;28;20248;-74
2023/02/27 09:51:52;;;;;;;4.13;2.10;;;;;;;;;;5047230;28;20670;-69
2023/02/27 09:54:18;;;;;;;3.65;2.00;;;;;;;;;;5045843;28;20032;-69
2023/02/27 09:56:46;;;;;;;3.55;2.20;;;;;;;;;;5046863;28;20325;-70
2023/02/27 09:59:15;;;;;;;5.97;2.55;;;;;;;;;;5044078;28;20117;-69
2023/02/27 10:01:49;;;;;;;8.17;2.33;;;;;;;;;;5044568;28;20020;-70
2023/02/27 10:04:24;;;;;;;5.57;2.08;;;;;;;;;;5046693;28;20044;-69
2023/02/27 10:07:08;;;;;;;3.78;1.85;;;;;;;;;;5047205;28;20056;-70
2023/02/27 10:09:53;;;;;;;3.35;1.73;;;;;;;;;;5044322;28;20499;-69
2023/02/27 10:12:25;;;;;;;5.82;1.85;;;;;;;;;;5045284;28;20049;-69
2023/02/27 10:14:52;;;;;;;2.42;1.50;;;;;;;;;;5046358;28;20522;-69
2023/02/27 10:17:23;;;;;;;4.13;2.00;;;;;;;;;;5047455;28;20029;-68
2023/02/27 10:19:49;;;;;;;4.25;1.58;;;;;;;;;;5047058;28;20072;-67
2023/02/27 10:22:18;;;;;;;3.47;1.70;;;;;;;;;;5054411;28;20029;-69
2023/02/27 10:24:43;;;;;;;;;;;;;;;;;;5045729;28;20104;-70
2023/02/27 10:27:12;;;;;;;3.17;1.70;;;;;;;;;;5045670;28;20015;-70
2023/02/27 10:29:41;;;;;;;4.67;1.80;;;;;;;;;;5047553;28;20074;-69
2023/02/27 10:32:10;;;;;;;4.28;1.80;;;;;;;;;;5044878;28;20033;-72
2023/02/27 10:34:38;;;;;;;3.47;1.92;;;;;;;;;;5046565;28;20021;-69
2023/02/27 10:37:04;;;;;;;2.90;1.67;;;;;;;;;;5046665;28;20123;-70
2023/02/27 10:39:31;;;;;;;4.35;1.60;;;;;;;;;;5046835;28;20532;-70
2023/02/27 10:42:01;;;;;;;3.40;1.55;;;;;;;;;;5027681;28;20025;-69
2023/02/27 10:44:27;;;;;;;2.80;1.50;;;;;;;;;;5047320;28;20158;-68
2023/02/27 10:46:52;;;;;;;5.10;2.10;;;;;;;;;;5049911;28;20540;-68
2023/02/27 10:49:18;;;;;;;2.00;1.40;;;;;;;;;;5050117;28;20770;-70
2023/02/27 10:51:45;;;;;;;4.43;1.67;;;;;;;;;;5050555;28;20290;-69
2023/02/27 10:54:14;;;;;;;7.57;1.67;;;;;;;;;;5057989;28;20468;-69
2023/02/27 10:56:39;;;;;;;4.07;1.73;;;;;;;;;;5045807;28;20029;-70
2023/02/27 10:59:06;;;;;;;3.53;1.85;;;;;;;;;;5050312;28;20028;-68
2023/02/27 11:01:42;;;;;;;1.80;1.50;;;;;;;;;;5049946;28;20104;-77
2023/02/27 11:04:07;;;;;;;3.40;1.40;;;;;;;;;;5050617;28;20025;-72
2023/02/27 11:06:32;;;;;;;3.73;1.50;;;;;;;;;;5051491;28;20035;-72
2023/02/27 11:09:18;;;;;;;2.30;1.35;;;;;;;;;;5049213;28;20279;-65
2023/02/27 11:11:43;;;;;;;4.10;1.83;;;;;;;;;;5033584;28;20124;-66
2023/02/27 11:14:34;;;;;;;3.20;1.70;;;;;;;;;;5046334;28;20543;-64
2023/02/27 11:17:01;;;;;;;4.43;1.55;;;;;;;;;;5032217;28;20037;-64
2023/02/27 11:19:29;;;;;;;3.13;1.75;;;;;;;;;;5051133;28;20469;-75
2023/02/27 11:21:58;;;;;;;4.65;1.77;;;;;;;;;;5046998;28;20128;-73
2023/02/27 11:24:23;;;;;;;4.07;1.63;;;;;;;;;;5055787;28;20067;-72
2023/02/27 11:27:03;;;;;;;3.30;1.80;;;;;;;;;;5054884;28;20037;-72
2023/02/27 11:29:29;;;;;;;3.67;1.63;;;;;;;;;;5047544;28;20025;-72
2023/02/27 11:32:00;;;;;;;4.30;1.60;;;;;;;;;;5053214;28;20040;-71
2023/02/27 11:34:31;;;;;;;2.90;1.52;;;;;;;;;;5051033;28;20060;-71
2023/02/27 11:36:59;;;;;;;4.53;2.55;;;;;;;;;;5049749;28;20031;-70
2023/02/27 11:39:30;;;;;;;2.35;1.83;;;;;;;;;;5048678;28;20028;-69
2023/02/27 11:41:57;;;;;;;2.72;1.58;;;;;;;;;;5050775;28;20058;-77
2023/02/27 11:44:27;;;;;;;4.00;1.60;;;;;;;;;;5050606;28;20057;-77
2023/02/27 11:47:22;;;;;;;4.72;2.25;;;;;;;;;;5049044;28;20025;-76
2023/02/27 11:50:01;;;;;;;3.10;1.73;;;;;;;;;;5030708;28;20041;-76
2023/02/27 11:52:36;;;;;;;3.55;1.67;;;;;;;;;;5047735;28;20032;-76
2023/02/27 11:55:04;;;;;;;3.47;1.88;;;;;;;;;;5049541;28;20041;-71
2023/02/27 11:57:37;;;;;;;5.55;2.03;;;;;;;;;;5056642;28;20299;-79
2023/02/27 12:00:14;;;;;;;3.10;2.25;;;;;;;;;;5044249;28;20025;-68
2023/02/27 12:02:40;;;;;;;3.05;1.92;;;;;;;;;;5043741;28;20036;-68
2023/02/27 12:05:17;;;;;;;2.90;1.87;;;;;;;;;;5048777;28;20135;-70
2023/02/27 12:07:45;;;;;;;3.58;1.58;;;;;;;;;;5029782;28;20630;-69
2023/02/27 12:10:14;;;;;;;3.05;1.83;;;;;;;;;;5048991;28;20033;-68
2023/02/27 12:12:46;;;;;;;4.32;1.80;;;;;;;;;;5048740;28;20024;-69
2023/02/27 12:15:20;;;;;;;5.10;2.00;;;;;;;;;;5052170;28;20040;-72
2023/02/27 12:17:48;;;;;;;3.60;2.15;;;;;;;;;;5046958;28;20033;-68
2023/02/27 12:20:19;;;;;;;4.18;1.80;;;;;;;;;;5051346;28;20036;-73
2023/02/27 12:22:47;;;;;;;4.47;2.22;;;;;;;;;;5047312;28;20048;-73
2023/02/27 12:25:21;;;;;;;4.72;1.88;;;;;;;;;;5049830;28;20048;-72
2023/02/27 12:27:50;;;;;;;4.82;1.50;;;;;;;;;;5048585;28;20035;-69
2023/02/27 12:30:17;;;;;;;5.93;2.25;;;;;;;;;;5054708;28;20037;-69
2023/02/27 12:32:45;;;;;;;3.00;1.83;;;;;;;;;;5049158;28;20112;-71
2023/02/27 12:35:22;;;;;;;2.90;1.75;;;;;;;;;;5043015;28;20100;-74
2023/02/27 12:37:47;;;;;;;3.92;2.05;;;;;;;;;;5045905;28;20531;-74
2023/02/27 12:40:14;;;;;;;5.00;1.67;;;;;;;;;;5048878;28;20116;-78
2023/02/27 12:42:58;;;;;;;3.33;1.67;;;;;;;;;;5048257;28;20021;-75
2023/02/27 12:45:46;;;;;;;5.40;1.73;;;;;;;;;;5046654;28;20056;-80
2023/02/27 12:48:11;;;;;;;3.25;1.60;;;;;;;;;;5043661;28;20026;-74
2023/02/27 12:50:56;;;;;;;2.57;1.80;;;;;;;;;;5048852;28;20630;-79
2023/02/27 12:53:32;;;;;;;6.78;2.25;;;;;;;;;;5005240;28;20279;-74
2023/02/27 12:56:01;;;;;;;2.92;1.73;;;;;;;;;;5048464;28;20258;-78
2023/02/27 12:58:36;;;;;;;3.10;1.80;;;;;;;;;;5046710;28;20029;-75
2023/02/27 13:01:09;;;;;;;4.70;1.80;;;;;;;;;;5053880;28;20033;-76
2023/02/27 13:03:38;;;;;;;3.53;1.45;;;;;;;;;;5048558;28;20116;-72
2023/02/27 13:06:22;;;;;;;4.97;1.98;;;;;;;;;;5046950;28;20035;-79
2023/02/27 13:08:50;;;;;;;2.40;1.45;;;;;;;;;;5029042;28;20029;-77
2023/02/27 13:11:43;;;;;;;2.97;1.95;;;;;;;;;;5047452;28;20055;-68
2023/02/27 13:14:27;;;;;;;6.20;1.88;;;;;;;;;;5042893;28;20028;-70
2023/02/27 13:16:55;;;;;;;6.35;2.42;;;;;;;;;;5046466;28;20035;-69
2023/02/27 13:19:37;;;;;;;4.10;1.63;;;;;;;;;;5048497;28;20032;-68
2023/02/27 13:22:14;;;;;;;3.50;1.70;;;;;;;;;;5041522;28;20028;-71
2023/02/27 13:24:48;;;;;;;4.88;2.22;;;;;;;;;;5048331;28;20041;-68
2023/02/27 13:27:22;;;;;;;3.25;1.50;;;;;;;;;;5046056;28;20025;-70
2023/02/27 13:30:02;;;;;;;3.20;1.70;;;;;;;;;;5029396;28;20688;-69
2023/02/27 13:32:30;;;;;;;3.40;2.03;;;;;;;;;;5052577;28;20017;-78
2023/02/27 13:34:59;;;;;;;4.03;1.58;;;;;;;;;;5049416;28;20032;-80
2023/02/27 13:37:44;;;;;;;4.78;2.40;;;;;;;;;;5048038;28;20017;-75
2023/02/27 13:40:26;;;;;;;4.93;2.08;;;;;;;;;;5046905;28;20033;-77
2023/02/27 13:42:53;;;;;;;2.65;1.65;;;;;;;;;;5047444;28;20021;-73
2023/02/27 13:45:36;;;;;;;2.95;1.73;;;;;;;;;;5047569;28;20490;-75
2023/02/27 13:48:02;;;;;;;2.25;1.60;;;;;;;;;;5044753;28;20025;-74
2023/02/27 13:50:27;;;;;;;3.53;1.70;;;;;;;;;;5043855;28;20048;-69
2023/02/27 13:52:52;;;;;;;3.93;1.80;;;;;;;;;;5047685;28;20684;-71
2023/02/27 13:55:26;;;;;;;3.22;1.88;;;;;;;;;;5047468;28;20362;-69
2023/02/27 13:57:54;;;;;;;2.65;1.67;;;;;;;;;;5043489;28;20025;-69
2023/02/27 14:00:24;;;;;;;3.88;1.60;;;;;;;;;;5045081;28;20024;-67
2023/02/27 14:03:09;;;;;;;7.63;2.72;;;;;;;;;;5045315;28;20076;-68
2023/02/27 14:05:37;;;;;;;2.17;1.85;;;;;;;;;;5043330;28;20040;-81
2023/02/27 14:08:02;;;;;;;4.47;2.22;;;;;;;;;;5049306;28;20103;-68
2023/02/27 14:10:29;;;;;;;4.32;1.55;;;;;;;;;;5048471;28;20131;-67
2023/02/27 14:12:56;;;;;;;4.95;1.48;;;;;;;;;;5022540;28;20024;-68
2023/02/27 14:15:21;;;;;;;1.90;1.40;;;;;;;;;;5046362;28;20104;-68
2023/02/27 14:17:51;;;;;;;3.70;1.63;;;;;;;;;;5047017;28;20195;-68
2023/02/27 14:20:18;;;;;;;4.47;1.80;;;;;;;;;;5047875;28;20275;-68
2023/02/27 14:23:02;;;;;;;3.78;1.90;;;;;;;;;;5046943;28;20045;-74
2023/02/27 14:25:32;;;;;;;4.82;1.92;;;;;;;;;;5050805;28;20119;-74
2023/02/27 14:27:58;;;;;;;5.22;1.75;;;;;;;;;;5045203;28;20480;-70
2023/02/27 14:30:39;;;;;;;3.65;1.70;;;;;;;;;;5052170;28;20545;-69
2023/02/27 14:33:13;;;;;;;3.65;1.60;;;;;;;;;;5044977;28;20073;-69
2023/02/27 14:35:43;;;;;;;3.05;1.98;;;;;;;;;;5053558;28;20033;-68
2023/02/27 14:38:09;;;;;;;6.75;2.05;;;;;;;;;;5057100;28;20105;-67
2023/02/27 14:40:37;;;;;;;5.60;1.73;;;;;;;;;;5050992;28;20037;-68
2023/02/27 14:43:07;;;;;;;2.97;2.22;;;;;;;;;;5048498;28;20064;-68
2023/02/27 14:45:32;;;;;;;3.78;1.55;;;;;;;;;;5051260;28;20040;-66
2023/02/27 14:47:58;;;;;;;1.83;1.40;;;;;;;;;;5051236;28;20033;-69
2023/02/27 14:50:27;;;;;;;7.80;1.67;;;;;;;;;;5048689;28;20496;-68
2023/02/27 14:52:53;;;;;;;3.28;1.45;;;;;;;;;;5051355;28;20044;-68
2023/02/27 14:55:18;;;;;;;2.78;1.70;;;;;;;;;;5051468;28;20033;-68
2023/02/27 14:57:53;;;;;;;5.22;2.08;;;;;;;;;;5048344;28;20041;-68